sensor_id;sensor_type;location;lat;lon;timestamp;temperature;humidity
4433;DHT22;2229;48.708;9.706;2023-08-08T00:01:04;12.10;99.90
4433;DHT22;2229;48.708;9.706;2023-08-08T00:03:31;12.10;99.90
4433;DHT22;2229;48.708;9.706;2023-08-08T00:05:58;12.00;99.90
4433;DHT22;2229;48.708;9.706;2023-08-08T00:08:27;12.00;99.90
4433;DHT22;2229;48.708;9.706;2023-08-08T00:10:54;12.00;99.90
4433;DHT22;2229;48.708;9.706;2023-08-08T00:13:22;12.00;99.90
4433;DHT22;2229;48.708;9.706;2023-08-08T00:15:49;11.90;99.90
4433;DHT22;2229;48.708;9.706;2023-08-08T00:18:18;11.90;99.90
4433;DHT22;2229;48.708;9.706;2023-08-08T00:20:45;11.90;99.90
4433;DHT22;2229;48.708;9.706;2023-08-08T00:23:13;11.90;99.90
4433;DHT22;2229;48.708;9.706;2023-08-08T00:25:41;11.90;99.90
4433;DHT22;2229;48.708;9.706;2023-08-08T00:28:09;11.90;99.90
4433;DHT22;2229;48.708;9.706;2023-08-08T00:30:36;11.80;99.90
4433;DHT22;2229;48.708;9.706;2023-08-08T00:33:04;11.80;99.90
4433;DHT22;2229;48.708;9.706;2023-08-08T00:35:32;11.80;99.90
4433;DHT22;2229;48.708;9.706;2023-08-08T00:37:59;11.70;99.90
4433;DHT22;2229;48.708;9.706;2023-08-08T00:40:27;11.70;99.90
4433;DHT22;2229;48.708;9.706;2023-08-08T00:42:56;11.70;99.90
4433;DHT22;2229;48.708;9.706;2023-08-08T00:45:23;11.70;99.90
4433;DHT22;2229;48.708;9.706;2023-08-08T00:47:51;11.60;99.90
4433;DHT22;2229;48.708;9.706;2023-08-08T00:50:18;11.60;99.90
4433;DHT22;2229;48.708;9.706;2023-08-08T00:52:46;11.60;99.90
4433;DHT22;2229;48.708;9.706;2023-08-08T00:55:16;11.60;99.90
4433;DHT22;2229;48.708;9.706;2023-08-08T00:57:43;11.60;99.90
4433;DHT22;2229;48.708;9.706;2023-08-08T01:00:13;11.60;99.90
4433;DHT22;2229;48.708;9.706;2023-08-08T01:02:40;11.60;99.90
4433;DHT22;2229;48.708;9.706;2023-08-08T01:05:08;11.60;99.90
4433;DHT22;2229;48.708;9.706;2023-08-08T01:07:39;11.60;99.90
4433;DHT22;2229;48.708;9.706;2023-08-08T01:10:10;11.70;99.90
4433;DHT22;2229;48.708;9.706;2023-08-08T01:12:42;11.70;99.90
4433;DHT22;2229;48.708;9.706;2023-08-08T01:15:13;11.70;99.90
4433;DHT22;2229;48.708;9.706;2023-08-08T01:17:41;11.70;99.90
4433;DHT22;2229;48.708;9.706;2023-08-08T01:20:11;11.70;99.90
4433;DHT22;2229;48.708;9.706;2023-08-08T01:22:48;11.70;99.90
4433;DHT22;2229;48.708;9.706;2023-08-08T01:25:19;11.80;99.90
4433;DHT22;2229;48.708;9.706;2023-08-08T01:27:47;11.80;99.90
4433;DHT22;2229;48.708;9.706;2023-08-08T01:30:14;11.80;99.90
4433;DHT22;2229;48.708;9.706;2023-08-08T01:32:43;11.80;99.90
4433;DHT22;2229;48.708;9.706;2023-08-08T01:35:10;11.80;99.90
4433;DHT22;2229;48.708;9.706;2023-08-08T01:37:43;11.80;99.90
4433;DHT22;2229;48.708;9.706;2023-08-08T01:40:13;11.80;99.90
4433;DHT22;2229;48.708;9.706;2023-08-08T01:42:46;11.80;99.90
4433;DHT22;2229;48.708;9.706;2023-08-08T01:45:15;11.80;99.90
4433;DHT22;2229;48.708;9.706;2023-08-08T01:47:43;11.90;99.90
4433;DHT22;2229;48.708;9.706;2023-08-08T01:50:10;11.80;99.90
4433;DHT22;2229;48.708;9.706;2023-08-08T01:52:38;11.90;99.90
4433;DHT22;2229;48.708;9.706;2023-08-08T01:55:06;11.90;99.90
4433;DHT22;2229;48.708;9.706;2023-08-08T01:57:33;11.90;99.90
4433;DHT22;2229;48.708;9.706;2023-08-08T02:00:04;11.90;99.90
4433;DHT22;2229;48.708;9.706;2023-08-08T02:02:41;12.00;99.90
4433;DHT22;2229;48.708;9.706;2023-08-08T02:05:08;11.90;99.90
4433;DHT22;2229;48.708;9.706;2023-08-08T02:07:36;11.90;99.90
4433;DHT22;2229;48.708;9.706;2023-08-08T02:10:03;11.90;99.90
4433;DHT22;2229;48.708;9.706;2023-08-08T02:12:31;11.90;99.90
4433;DHT22;2229;48.708;9.706;2023-08-08T02:14:59;11.90;99.90
4433;DHT22;2229;48.708;9.706;2023-08-08T02:17:28;11.90;99.90
4433;DHT22;2229;48.708;9.706;2023-08-08T02:19:56;12.00;99.90
4433;DHT22;2229;48.708;9.706;2023-08-08T02:22:23;12.00;99.90
4433;DHT22;2229;48.708;9.706;2023-08-08T02:24:50;12.10;99.90
4433;DHT22;2229;48.708;9.706;2023-08-08T02:27:17;12.10;99.90
4433;DHT22;2229;48.708;9.706;2023-08-08T02:29:45;12.10;99.90
4433;DHT22;2229;48.708;9.706;2023-08-08T02:32:12;12.10;99.90
4433;DHT22;2229;48.708;9.706;2023-08-08T02:34:40;12.10;99.90
4433;DHT22;2229;48.708;9.706;2023-08-08T02:37:08;12.10;99.90
4433;DHT22;2229;48.708;9.706;2023-08-08T02:39:35;12.10;99.90
4433;DHT22;2229;48.708;9.706;2023-08-08T02:42:03;12.20;99.90
4433;DHT22;2229;48.708;9.706;2023-08-08T02:44:30;12.10;99.90
4433;DHT22;2229;48.708;9.706;2023-08-08T02:46:58;12.10;99.90
4433;DHT22;2229;48.708;9.706;2023-08-08T02:49:26;12.10;99.90
4433;DHT22;2229;48.708;9.706;2023-08-08T02:51:55;12.10;99.90
4433;DHT22;2229;48.708;9.706;2023-08-08T02:54:26;12.10;99.90
4433;DHT22;2229;48.708;9.706;2023-08-08T02:56:53;12.10;99.90
4433;DHT22;2229;48.708;9.706;2023-08-08T02:59:21;12.10;99.90
4433;DHT22;2229;48.708;9.706;2023-08-08T03:01:50;12.20;99.90
4433;DHT22;2229;48.708;9.706;2023-08-08T03:04:18;12.10;99.90
4433;DHT22;2229;48.708;9.706;2023-08-08T03:06:45;12.10;99.90
4433;DHT22;2229;48.708;9.706;2023-08-08T03:09:14;12.10;99.90
4433;DHT22;2229;48.708;9.706;2023-08-08T03:11:42;12.10;99.90
4433;DHT22;2229;48.708;9.706;2023-08-08T03:14:13;12.10;99.90
4433;DHT22;2229;48.708;9.706;2023-08-08T03:16:40;12.10;99.90
4433;DHT22;2229;48.708;9.706;2023-08-08T03:19:09;12.10;99.90
4433;DHT22;2229;48.708;9.706;2023-08-08T03:21:38;12.10;99.90
4433;DHT22;2229;48.708;9.706;2023-08-08T03:24:05;12.10;99.90
4433;DHT22;2229;48.708;9.706;2023-08-08T03:26:34;12.10;99.90
4433;DHT22;2229;48.708;9.706;2023-08-08T03:29:02;12.10;99.90
4433;DHT22;2229;48.708;9.706;2023-08-08T03:31:35;12.10;99.90
4433;DHT22;2229;48.708;9.706;2023-08-08T03:34:04;12.10;99.90
4433;DHT22;2229;48.708;9.706;2023-08-08T03:36:33;12.10;99.90
4433;DHT22;2229;48.708;9.706;2023-08-08T03:39:00;12.10;99.90
4433;DHT22;2229;48.708;9.706;2023-08-08T03:41:29;12.10;99.90
4433;DHT22;2229;48.708;9.706;2023-08-08T03:43:57;12.10;99.90
4433;DHT22;2229;48.708;9.706;2023-08-08T03:46:25;12.10;99.90
4433;DHT22;2229;48.708;9.706;2023-08-08T03:48:52;12.00;99.90
4433;DHT22;2229;48.708;9.706;2023-08-08T03:51:20;12.00;99.90
4433;DHT22;2229;48.708;9.706;2023-08-08T03:53:47;12.00;99.90
4433;DHT22;2229;48.708;9.706;2023-08-08T03:56:14;12.00;99.90
4433;DHT22;2229;48.708;9.706;2023-08-08T03:58:42;12.00;99.90
4433;DHT22;2229;48.708;9.706;2023-08-08T04:01:10;12.10;99.90
4433;DHT22;2229;48.708;9.706;2023-08-08T04:03:37;12.10;99.90
4433;DHT22;2229;48.708;9.706;2023-08-08T04:06:05;12.10;99.90
4433;DHT22;2229;48.708;9.706;2023-08-08T04:08:33;12.10;99.90
4433;DHT22;2229;48.708;9.706;2023-08-08T04:11:04;12.10;99.90
4433;DHT22;2229;48.708;9.706;2023-08-08T04:13:31;12.10;99.90
4433;DHT22;2229;48.708;9.706;2023-08-08T04:15:58;12.10;99.90
4433;DHT22;2229;48.708;9.706;2023-08-08T04:18:27;12.10;99.90
4433;DHT22;2229;48.708;9.706;2023-08-08T04:20:54;12.10;99.90
4433;DHT22;2229;48.708;9.706;2023-08-08T04:23:22;12.00;99.90
4433;DHT22;2229;48.708;9.706;2023-08-08T04:25:51;12.10;99.90
4433;DHT22;2229;48.708;9.706;2023-08-08T04:28:19;12.10;99.90
4433;DHT22;2229;48.708;9.706;2023-08-08T04:30:46;12.10;99.90
4433;DHT22;2229;48.708;9.706;2023-08-08T04:33:13;12.20;99.90
4433;DHT22;2229;48.708;9.706;2023-08-08T04:35:42;12.20;99.90
4433;DHT22;2229;48.708;9.706;2023-08-08T04:38:09;12.20;99.90
4433;DHT22;2229;48.708;9.706;2023-08-08T04:40:37;12.20;99.90
4433;DHT22;2229;48.708;9.706;2023-08-08T04:43:04;12.30;99.90
4433;DHT22;2229;48.708;9.706;2023-08-08T04:45:31;12.30;99.90
4433;DHT22;2229;48.708;9.706;2023-08-08T04:47:59;12.40;99.90
4433;DHT22;2229;48.708;9.706;2023-08-08T04:50:26;12.40;99.90
4433;DHT22;2229;48.708;9.706;2023-08-08T04:52:55;12.40;99.90
4433;DHT22;2229;48.708;9.706;2023-08-08T04:55:22;12.40;99.90
4433;DHT22;2229;48.708;9.706;2023-08-08T04:57:49;12.40;99.90
4433;DHT22;2229;48.708;9.706;2023-08-08T05:00:17;12.40;99.90
4433;DHT22;2229;48.708;9.706;2023-08-08T05:02:44;12.50;99.90
4433;DHT22;2229;48.708;9.706;2023-08-08T05:05:11;12.50;99.90
4433;DHT22;2229;48.708;9.706;2023-08-08T05:07:40;12.50;99.90
4433;DHT22;2229;48.708;9.706;2023-08-08T05:10:10;12.50;99.90
4433;DHT22;2229;48.708;9.706;2023-08-08T05:12:37;12.50;99.90
4433;DHT22;2229;48.708;9.706;2023-08-08T05:15:07;12.60;99.90
4433;DHT22;2229;48.708;9.706;2023-08-08T05:17:35;12.60;99.90
4433;DHT22;2229;48.708;9.706;2023-08-08T05:20:02;12.60;99.90
4433;DHT22;2229;48.708;9.706;2023-08-08T05:22:29;12.60;99.90
4433;DHT22;2229;48.708;9.706;2023-08-08T05:24:57;12.70;99.90
4433;DHT22;2229;48.708;9.706;2023-08-08T05:27:25;12.70;99.90
4433;DHT22;2229;48.708;9.706;2023-08-08T05:29:52;12.70;99.90
4433;DHT22;2229;48.708;9.706;2023-08-08T05:32:20;12.70;99.90
4433;DHT22;2229;48.708;9.706;2023-08-08T05:34:50;12.70;99.90
4433;DHT22;2229;48.708;9.706;2023-08-08T05:37:17;12.70;99.90
4433;DHT22;2229;48.708;9.706;2023-08-08T05:39:44;12.80;99.90
4433;DHT22;2229;48.708;9.706;2023-08-08T05:42:12;12.90;99.90
4433;DHT22;2229;48.708;9.706;2023-08-08T05:44:40;12.90;99.90
4433;DHT22;2229;48.708;9.706;2023-08-08T05:47:08;13.00;99.90
4433;DHT22;2229;48.708;9.706;2023-08-08T05:49:35;13.00;99.90
4433;DHT22;2229;48.708;9.706;2023-08-08T05:52:06;13.10;99.90
4433;DHT22;2229;48.708;9.706;2023-08-08T05:54:33;13.20;99.90
4433;DHT22;2229;48.708;9.706;2023-08-08T05:57:02;13.20;99.90
4433;DHT22;2229;48.708;9.706;2023-08-08T05:59:29;13.30;99.90
4433;DHT22;2229;48.708;9.706;2023-08-08T06:01:58;13.40;99.90
4433;DHT22;2229;48.708;9.706;2023-08-08T06:04:25;13.50;99.90
4433;DHT22;2229;48.708;9.706;2023-08-08T06:06:53;13.50;99.90
4433;DHT22;2229;48.708;9.706;2023-08-08T06:09:20;13.60;99.90
4433;DHT22;2229;48.708;9.706;2023-08-08T06:11:48;13.60;99.90
4433;DHT22;2229;48.708;9.706;2023-08-08T06:14:15;13.70;99.90
4433;DHT22;2229;48.708;9.706;2023-08-08T06:16:42;13.80;99.90
4433;DHT22;2229;48.708;9.706;2023-08-08T06:19:11;13.90;99.90
4433;DHT22;2229;48.708;9.706;2023-08-08T06:21:40;14.00;99.90
4433;DHT22;2229;48.708;9.706;2023-08-08T06:24:08;14.10;99.90
4433;DHT22;2229;48.708;9.706;2023-08-08T06:26:35;14.20;99.90
4433;DHT22;2229;48.708;9.706;2023-08-08T06:29:02;14.30;99.90
4433;DHT22;2229;48.708;9.706;2023-08-08T06:31:30;14.40;99.90
4433;DHT22;2229;48.708;9.706;2023-08-08T06:33:58;14.50;99.90
4433;DHT22;2229;48.708;9.706;2023-08-08T06:36:27;14.60;99.90
4433;DHT22;2229;48.708;9.706;2023-08-08T06:38:54;14.60;99.90
4433;DHT22;2229;48.708;9.706;2023-08-08T06:41:21;14.60;99.90
4433;DHT22;2229;48.708;9.706;2023-08-08T06:43:48;14.70;99.90
4433;DHT22;2229;48.708;9.706;2023-08-08T06:46:15;14.70;99.90
4433;DHT22;2229;48.708;9.706;2023-08-08T06:48:42;14.80;99.90
4433;DHT22;2229;48.708;9.706;2023-08-08T06:51:10;14.90;99.90
4433;DHT22;2229;48.708;9.706;2023-08-08T06:53:38;15.00;99.90
4433;DHT22;2229;48.708;9.706;2023-08-08T06:56:06;15.10;99.90
4433;DHT22;2229;48.708;9.706;2023-08-08T06:58:33;15.20;99.90
4433;DHT22;2229;48.708;9.706;2023-08-08T07:01:00;15.40;99.90
4433;DHT22;2229;48.708;9.706;2023-08-08T07:03:27;15.50;99.90
4433;DHT22;2229;48.708;9.706;2023-08-08T07:05:54;15.60;99.90
4433;DHT22;2229;48.708;9.706;2023-08-08T07:08:23;15.80;99.90
4433;DHT22;2229;48.708;9.706;2023-08-08T07:10:52;15.90;99.90
4433;DHT22;2229;48.708;9.706;2023-08-08T07:13:20;16.10;99.90
4433;DHT22;2229;48.708;9.706;2023-08-08T07:15:47;16.20;99.90
4433;DHT22;2229;48.708;9.706;2023-08-08T07:18:14;16.30;99.90
4433;DHT22;2229;48.708;9.706;2023-08-08T07:20:41;16.50;99.90
4433;DHT22;2229;48.708;9.706;2023-08-08T07:23:09;16.60;99.90
4433;DHT22;2229;48.708;9.706;2023-08-08T07:25:36;16.70;99.90
4433;DHT22;2229;48.708;9.706;2023-08-08T07:28:05;16.80;99.90
4433;DHT22;2229;48.708;9.706;2023-08-08T07:30:33;17.00;99.90
4433;DHT22;2229;48.708;9.706;2023-08-08T07:33:00;17.10;99.90
4433;DHT22;2229;48.708;9.706;2023-08-08T07:35:28;17.30;99.90
4433;DHT22;2229;48.708;9.706;2023-08-08T07:37:55;17.40;99.90
4433;DHT22;2229;48.708;9.706;2023-08-08T07:40:22;17.60;99.90
4433;DHT22;2229;48.708;9.706;2023-08-08T07:42:49;17.60;99.60
4433;DHT22;2229;48.708;9.706;2023-08-08T07:45:19;17.80;99.30
4433;DHT22;2229;48.708;9.706;2023-08-08T07:47:46;17.90;98.90
4433;DHT22;2229;48.708;9.706;2023-08-08T07:50:14;18.00;98.50
4433;DHT22;2229;48.708;9.706;2023-08-08T07:52:41;18.00;98.40
4433;DHT22;2229;48.708;9.706;2023-08-08T07:55:08;18.20;98.20
4433;DHT22;2229;48.708;9.706;2023-08-08T07:57:35;18.20;98.30
4433;DHT22;2229;48.708;9.706;2023-08-08T08:00:06;18.40;98.30
4433;DHT22;2229;48.708;9.706;2023-08-08T08:02:45;18.50;97.60
4433;DHT22;2229;48.708;9.706;2023-08-08T08:05:13;18.60;96.90
4433;DHT22;2229;48.708;9.706;2023-08-08T08:07:41;18.70;96.50
4433;DHT22;2229;48.708;9.706;2023-08-08T08:10:12;18.80;95.80
4433;DHT22;2229;48.708;9.706;2023-08-08T08:12:40;18.90;95.50
4433;DHT22;2229;48.708;9.706;2023-08-08T08:15:09;19.00;95.20
4433;DHT22;2229;48.708;9.706;2023-08-08T08:17:36;19.10;95.30
4433;DHT22;2229;48.708;9.706;2023-08-08T08:20:06;19.20;95.20
4433;DHT22;2229;48.708;9.706;2023-08-08T08:22:36;19.40;94.90
4433;DHT22;2229;48.708;9.706;2023-08-08T08:25:05;19.50;94.10
4433;DHT22;2229;48.708;9.706;2023-08-08T08:27:35;19.60;93.50
4433;DHT22;2229;48.708;9.706;2023-08-08T08:30:03;19.80;93.50
4433;DHT22;2229;48.708;9.706;2023-08-08T08:32:32;19.90;93.20
4433;DHT22;2229;48.708;9.706;2023-08-08T08:35:01;20.10;92.80
4433;DHT22;2229;48.708;9.706;2023-08-08T08:37:31;20.10;91.60
4433;DHT22;2229;48.708;9.706;2023-08-08T08:39:58;20.30;91.10
4433;DHT22;2229;48.708;9.706;2023-08-08T08:42:26;20.30;90.80
4433;DHT22;2229;48.708;9.706;2023-08-08T08:44:57;20.40;90.30
4433;DHT22;2229;48.708;9.706;2023-08-08T08:47:25;20.40;90.00
4433;DHT22;2229;48.708;9.706;2023-08-08T08:49:57;20.40;90.00
4433;DHT22;2229;48.708;9.706;2023-08-08T08:52:25;20.40;89.80
4433;DHT22;2229;48.708;9.706;2023-08-08T08:54:54;20.40;90.20
4433;DHT22;2229;48.708;9.706;2023-08-08T08:57:21;20.50;89.60
4433;DHT22;2229;48.708;9.706;2023-08-08T08:59:49;20.50;89.10
4433;DHT22;2229;48.708;9.706;2023-08-08T09:02:17;20.60;89.10
4433;DHT22;2229;48.708;9.706;2023-08-08T09:04:45;20.70;90.00
4433;DHT22;2229;48.708;9.706;2023-08-08T09:07:13;20.80;89.20
4433;DHT22;2229;48.708;9.706;2023-08-08T09:09:42;20.90;89.30
4433;DHT22;2229;48.708;9.706;2023-08-08T09:12:11;21.10;89.10
4433;DHT22;2229;48.708;9.706;2023-08-08T09:14:41;21.10;87.60
4433;DHT22;2229;48.708;9.706;2023-08-08T09:17:12;21.20;87.90
4433;DHT22;2229;48.708;9.706;2023-08-08T09:19:42;21.20;87.80
4433;DHT22;2229;48.708;9.706;2023-08-08T09:22:12;21.30;87.40
4433;DHT22;2229;48.708;9.706;2023-08-08T09:24:40;21.40;88.00
4433;DHT22;2229;48.708;9.706;2023-08-08T09:27:08;21.40;86.90
4433;DHT22;2229;48.708;9.706;2023-08-08T09:29:37;21.50;86.20
4433;DHT22;2229;48.708;9.706;2023-08-08T09:32:05;21.50;85.00
4433;DHT22;2229;48.708;9.706;2023-08-08T09:34:32;21.70;85.00
4433;DHT22;2229;48.708;9.706;2023-08-08T09:37:00;21.70;85.10
4433;DHT22;2229;48.708;9.706;2023-08-08T09:39:28;21.80;84.10
4433;DHT22;2229;48.708;9.706;2023-08-08T09:41:55;21.70;83.90
4433;DHT22;2229;48.708;9.706;2023-08-08T09:44:23;21.70;84.70
4433;DHT22;2229;48.708;9.706;2023-08-08T09:46:54;21.80;84.00
4433;DHT22;2229;48.708;9.706;2023-08-08T09:49:22;21.80;83.20
4433;DHT22;2229;48.708;9.706;2023-08-08T09:51:49;21.80;80.60
4433;DHT22;2229;48.708;9.706;2023-08-08T09:54:17;21.70;80.30
4433;DHT22;2229;48.708;9.706;2023-08-08T09:56:44;21.70;79.90
4433;DHT22;2229;48.708;9.706;2023-08-08T09:59:12;21.60;79.60
4433;DHT22;2229;48.708;9.706;2023-08-08T10:01:40;21.50;79.50
4433;DHT22;2229;48.708;9.706;2023-08-08T10:04:11;21.40;79.20
4433;DHT22;2229;48.708;9.706;2023-08-08T10:06:39;21.50;80.50
4433;DHT22;2229;48.708;9.706;2023-08-08T10:09:07;21.60;81.50
4433;DHT22;2229;48.708;9.706;2023-08-08T10:11:35;21.90;81.70
4433;DHT22;2229;48.708;9.706;2023-08-08T10:14:03;22.00;80.90
4433;DHT22;2229;48.708;9.706;2023-08-08T10:16:32;22.30;79.90
4433;DHT22;2229;48.708;9.706;2023-08-08T10:19:01;22.40;77.70
4433;DHT22;2229;48.708;9.706;2023-08-08T10:21:33;22.50;77.10
4433;DHT22;2229;48.708;9.706;2023-08-08T10:24:02;22.50;75.40
4433;DHT22;2229;48.708;9.706;2023-08-08T10:26:29;22.60;75.60
4433;DHT22;2229;48.708;9.706;2023-08-08T10:28:58;22.70;75.70
4433;DHT22;2229;48.708;9.706;2023-08-08T10:31:26;22.80;76.60
4433;DHT22;2229;48.708;9.706;2023-08-08T10:34:01;22.90;75.10
4433;DHT22;2229;48.708;9.706;2023-08-08T10:36:47;23.00;74.40
4433;DHT22;2229;48.708;9.706;2023-08-08T10:39:16;23.10;74.30
4433;DHT22;2229;48.708;9.706;2023-08-08T10:41:46;23.20;74.20
4433;DHT22;2229;48.708;9.706;2023-08-08T10:44:13;23.30;74.90
4433;DHT22;2229;48.708;9.706;2023-08-08T10:46:41;23.40;73.80
4433;DHT22;2229;48.708;9.706;2023-08-08T10:49:12;23.40;73.00
4433;DHT22;2229;48.708;9.706;2023-08-08T10:51:42;23.40;72.80
4433;DHT22;2229;48.708;9.706;2023-08-08T10:54:15;23.40;73.00
4433;DHT22;2229;48.708;9.706;2023-08-08T10:56:55;23.40;72.50
4433;DHT22;2229;48.708;9.706;2023-08-08T10:59:25;23.50;72.10
4433;DHT22;2229;48.708;9.706;2023-08-08T11:01:54;23.50;71.40
4433;DHT22;2229;48.708;9.706;2023-08-08T11:04:23;23.40;70.80
4433;DHT22;2229;48.708;9.706;2023-08-08T11:06:53;23.40;71.00
4433;DHT22;2229;48.708;9.706;2023-08-08T11:09:22;23.30;70.80
4433;DHT22;2229;48.708;9.706;2023-08-08T11:11:49;23.20;71.00
4433;DHT22;2229;48.708;9.706;2023-08-08T11:14:18;23.10;71.20
4433;DHT22;2229;48.708;9.706;2023-08-08T11:16:48;22.90;70.90
4433;DHT22;2229;48.708;9.706;2023-08-08T11:19:15;22.80;70.50
4433;DHT22;2229;48.708;9.706;2023-08-08T11:21:45;22.90;69.50
4433;DHT22;2229;48.708;9.706;2023-08-08T11:24:13;23.00;68.40
4433;DHT22;2229;48.708;9.706;2023-08-08T11:26:43;23.00;68.80
4433;DHT22;2229;48.708;9.706;2023-08-08T11:29:11;23.00;68.40
4433;DHT22;2229;48.708;9.706;2023-08-08T11:31:39;23.00;68.30
4433;DHT22;2229;48.708;9.706;2023-08-08T11:34:07;22.90;68.50
4433;DHT22;2229;48.708;9.706;2023-08-08T11:36:36;22.80;69.20
4433;DHT22;2229;48.708;9.706;2023-08-08T11:39:04;22.80;70.20
4433;DHT22;2229;48.708;9.706;2023-08-08T11:41:36;22.90;70.70
4433;DHT22;2229;48.708;9.706;2023-08-08T11:44:05;22.90;68.70
4433;DHT22;2229;48.708;9.706;2023-08-08T11:46:34;22.90;68.10
4433;DHT22;2229;48.708;9.706;2023-08-08T11:49:05;22.90;68.20
4433;DHT22;2229;48.708;9.706;2023-08-08T11:51:32;22.80;69.10
4433;DHT22;2229;48.708;9.706;2023-08-08T11:54:01;22.90;69.90
4433;DHT22;2229;48.708;9.706;2023-08-08T11:56:29;22.90;69.20
4433;DHT22;2229;48.708;9.706;2023-08-08T11:59:00;23.00;70.50
4433;DHT22;2229;48.708;9.706;2023-08-08T12:01:31;23.10;68.90
4433;DHT22;2229;48.708;9.706;2023-08-08T12:04:03;23.40;68.90
4433;DHT22;2229;48.708;9.706;2023-08-08T12:06:32;23.50;68.70
4433;DHT22;2229;48.708;9.706;2023-08-08T12:09:02;23.70;67.80
4433;DHT22;2229;48.708;9.706;2023-08-08T12:11:29;23.70;67.20
4433;DHT22;2229;48.708;9.706;2023-08-08T12:13:59;23.50;65.50
4433;DHT22;2229;48.708;9.706;2023-08-08T12:16:29;23.20;65.10
4433;DHT22;2229;48.708;9.706;2023-08-08T12:18:57;23.10;66.20
4433;DHT22;2229;48.708;9.706;2023-08-08T12:21:24;22.90;66.60
4433;DHT22;2229;48.708;9.706;2023-08-08T12:23:51;22.90;67.10
4433;DHT22;2229;48.708;9.706;2023-08-08T12:26:19;22.90;67.20
4433;DHT22;2229;48.708;9.706;2023-08-08T12:28:47;22.90;67.10
4433;DHT22;2229;48.708;9.706;2023-08-08T12:31:16;22.90;66.80
4433;DHT22;2229;48.708;9.706;2023-08-08T12:33:44;22.90;67.20
4433;DHT22;2229;48.708;9.706;2023-08-08T12:36:12;22.80;66.60
4433;DHT22;2229;48.708;9.706;2023-08-08T12:38:40;22.80;65.80
4433;DHT22;2229;48.708;9.706;2023-08-08T12:41:07;22.70;65.30
4433;DHT22;2229;48.708;9.706;2023-08-08T12:43:36;22.50;63.40
4433;DHT22;2229;48.708;9.706;2023-08-08T12:46:03;22.40;63.10
4433;DHT22;2229;48.708;9.706;2023-08-08T12:48:31;22.40;63.70
4433;DHT22;2229;48.708;9.706;2023-08-08T12:51:00;22.30;64.90
4433;DHT22;2229;48.708;9.706;2023-08-08T12:53:28;22.40;65.20
4433;DHT22;2229;48.708;9.706;2023-08-08T12:55:55;22.40;65.20
4433;DHT22;2229;48.708;9.706;2023-08-08T12:58:23;22.40;65.30
4433;DHT22;2229;48.708;9.706;2023-08-08T13:00:50;22.50;65.50
4433;DHT22;2229;48.708;9.706;2023-08-08T13:03:17;22.60;65.30
4433;DHT22;2229;48.708;9.706;2023-08-08T13:05:44;22.70;64.90
4433;DHT22;2229;48.708;9.706;2023-08-08T13:08:14;22.70;64.90
4433;DHT22;2229;48.708;9.706;2023-08-08T13:10:41;22.80;64.40
4433;DHT22;2229;48.708;9.706;2023-08-08T13:13:08;22.90;64.10
4433;DHT22;2229;48.708;9.706;2023-08-08T13:15:35;23.00;64.30
4433;DHT22;2229;48.708;9.706;2023-08-08T13:18:03;23.00;64.40
4433;DHT22;2229;48.708;9.706;2023-08-08T13:20:30;23.10;63.40
4433;DHT22;2229;48.708;9.706;2023-08-08T13:22:58;23.20;63.20
4433;DHT22;2229;48.708;9.706;2023-08-08T13:25:27;23.20;63.60
4433;DHT22;2229;48.708;9.706;2023-08-08T13:27:54;23.30;63.20
4433;DHT22;2229;48.708;9.706;2023-08-08T13:30:21;23.30;62.80
4433;DHT22;2229;48.708;9.706;2023-08-08T13:32:49;23.20;62.50
4433;DHT22;2229;48.708;9.706;2023-08-08T13:35:16;23.10;62.70
4433;DHT22;2229;48.708;9.706;2023-08-08T13:37:43;23.10;63.10
4433;DHT22;2229;48.708;9.706;2023-08-08T13:40:11;23.10;63.60
4433;DHT22;2229;48.708;9.706;2023-08-08T13:42:40;23.10;63.00
4433;DHT22;2229;48.708;9.706;2023-08-08T13:45:09;23.00;62.40
4433;DHT22;2229;48.708;9.706;2023-08-08T13:47:36;23.00;62.90
4433;DHT22;2229;48.708;9.706;2023-08-08T13:50:04;23.00;63.20
4433;DHT22;2229;48.708;9.706;2023-08-08T13:52:31;23.00;62.10
4433;DHT22;2229;48.708;9.706;2023-08-08T13:54:59;23.00;62.00
4433;DHT22;2229;48.708;9.706;2023-08-08T13:57:26;22.90;62.40
4433;DHT22;2229;48.708;9.706;2023-08-08T13:59:55;22.80;62.70
4433;DHT22;2229;48.708;9.706;2023-08-08T14:02:22;22.70;62.90
4433;DHT22;2229;48.708;9.706;2023-08-08T14:04:49;22.50;62.40
4433;DHT22;2229;48.708;9.706;2023-08-08T14:07:18;22.40;63.20
4433;DHT22;2229;48.708;9.706;2023-08-08T14:09:47;22.30;63.80
4433;DHT22;2229;48.708;9.706;2023-08-08T14:12:14;22.20;64.20
4433;DHT22;2229;48.708;9.706;2023-08-08T14:14:42;22.00;63.70
4433;DHT22;2229;48.708;9.706;2023-08-08T14:17:11;21.90;64.00
4433;DHT22;2229;48.708;9.706;2023-08-08T14:19:38;21.70;64.00
4433;DHT22;2229;48.708;9.706;2023-08-08T14:22:05;21.70;63.70
4433;DHT22;2229;48.708;9.706;2023-08-08T14:24:32;21.50;63.50
4433;DHT22;2229;48.708;9.706;2023-08-08T14:27:00;21.40;63.90
4433;DHT22;2229;48.708;9.706;2023-08-08T14:29:27;21.30;64.40
4433;DHT22;2229;48.708;9.706;2023-08-08T14:31:54;21.30;64.50
4433;DHT22;2229;48.708;9.706;2023-08-08T14:34:29;21.20;64.90
4433;DHT22;2229;48.708;9.706;2023-08-08T14:36:57;21.30;65.30
4433;DHT22;2229;48.708;9.706;2023-08-08T14:39:25;21.30;66.30
4433;DHT22;2229;48.708;9.706;2023-08-08T14:41:52;21.50;66.90
4433;DHT22;2229;48.708;9.706;2023-08-08T14:44:20;21.60;66.90
4433;DHT22;2229;48.708;9.706;2023-08-08T14:46:47;21.80;66.50
4433;DHT22;2229;48.708;9.706;2023-08-08T14:49:15;21.80;65.90
4433;DHT22;2229;48.708;9.706;2023-08-08T14:51:44;21.80;66.10
4433;DHT22;2229;48.708;9.706;2023-08-08T14:54:11;21.80;66.40
4433;DHT22;2229;48.708;9.706;2023-08-08T14:56:38;21.80;66.80
4433;DHT22;2229;48.708;9.706;2023-08-08T14:59:05;21.90;68.00
4433;DHT22;2229;48.708;9.706;2023-08-08T15:01:33;22.00;68.40
4433;DHT22;2229;48.708;9.706;2023-08-08T15:04:00;22.10;67.80
4433;DHT22;2229;48.708;9.706;2023-08-08T15:06:28;22.20;66.90
4433;DHT22;2229;48.708;9.706;2023-08-08T15:08:57;22.30;66.80
4433;DHT22;2229;48.708;9.706;2023-08-08T15:11:24;22.30;66.50
4433;DHT22;2229;48.708;9.706;2023-08-08T15:13:52;22.30;66.40
4433;DHT22;2229;48.708;9.706;2023-08-08T15:16:19;22.20;66.70
4433;DHT22;2229;48.708;9.706;2023-08-08T15:18:46;22.10;65.70
4433;DHT22;2229;48.708;9.706;2023-08-08T15:21:14;22.00;66.20
4433;DHT22;2229;48.708;9.706;2023-08-08T15:23:45;21.90;66.70
4433;DHT22;2229;48.708;9.706;2023-08-08T15:26:13;21.90;67.60
4433;DHT22;2229;48.708;9.706;2023-08-08T15:28:41;21.80;67.90
4433;DHT22;2229;48.708;9.706;2023-08-08T15:31:09;21.70;67.30
4433;DHT22;2229;48.708;9.706;2023-08-08T15:33:36;21.50;67.80
4433;DHT22;2229;48.708;9.706;2023-08-08T15:36:04;21.40;68.30
4433;DHT22;2229;48.708;9.706;2023-08-08T15:38:32;21.30;68.70
4433;DHT22;2229;48.708;9.706;2023-08-08T15:41:02;21.30;69.50
4433;DHT22;2229;48.708;9.706;2023-08-08T15:43:31;21.30;69.20
4433;DHT22;2229;48.708;9.706;2023-08-08T15:45:58;21.20;69.50
4433;DHT22;2229;48.708;9.706;2023-08-08T15:48:26;21.20;69.50
4433;DHT22;2229;48.708;9.706;2023-08-08T15:50:54;21.20;69.60
4433;DHT22;2229;48.708;9.706;2023-08-08T15:53:21;21.20;69.90
4433;DHT22;2229;48.708;9.706;2023-08-08T15:55:50;21.10;69.30
4433;DHT22;2229;48.708;9.706;2023-08-08T15:58:17;21.20;69.50
4433;DHT22;2229;48.708;9.706;2023-08-08T16:00:46;21.10;69.30
4433;DHT22;2229;48.708;9.706;2023-08-08T16:03:13;21.20;70.20
4433;DHT22;2229;48.708;9.706;2023-08-08T16:05:40;21.10;70.10
4433;DHT22;2229;48.708;9.706;2023-08-08T16:08:08;21.10;69.90